Time;durP1;ratioP1;P1;durP2;ratioP2;P2;SDS_P1;SDS_P2;PMS_P1;PMS_P2;Temp;Humidity;BMP_temperature;BMP_pressure;BME280_temperature;BME280_humidity;BME280_pressure;Samples;Min_cycle;Max_cycle;Signal;HPM_P1;HPM_P2
2021/09/30 00:00:06;;;;;;;2.63;0.73;;;14.10;1.00;;;;;;5107498;28;20451;-53
2021/09/30 00:02:31;;;;;;;1.80;0.90;;;14.00;1.00;;;;;;5109878;28;20183;-54
2021/09/30 00:04:57;;;;;;;1.17;0.70;;;14.00;1.00;;;;;;5094255;28;20908;-53
2021/09/30 00:07:22;;;;;;;0.90;0.70;;;13.90;1.00;;;;;;5110770;28;20186;-53
2021/09/30 00:09:48;;;;;;;0.80;0.80;;;13.90;1.00;;;;;;5108411;28;20206;-53
2021/09/30 00:12:18;;;;;;;1.90;0.70;;;14.00;1.00;;;;;;5099544;28;20298;-53
2021/09/30 00:14:57;;;;;;;0.97;0.70;;;14.00;1.00;;;;;;5110594;28;20403;-54
2021/09/30 00:47:05;;;;;;;1.07;0.70;;;14.20;1.00;;;;;;5113396;28;20457;-53
2021/09/30 00:49:40;;;;;;;0.80;0.70;;;14.10;1.00;;;;;;5114031;28;21034;-53
2021/09/30 00:55:02;;;;;;;1.93;0.77;;;14.10;1.00;;;;;;5113220;28;20403;-54
2021/09/30 01:18:43;;;;;;;1.10;0.70;;;13.90;1.00;;;;;;5108485;28;20488;-54
2021/09/30 01:33:07;;;;;;;1.07;0.80;;;13.90;1.00;;;;;;5110957;28;20745;-54
2021/09/30 01:46:25;;;;;;;1.23;1.03;;;13.80;1.00;;;;;;5109839;28;20479;-54
2021/09/30 02:20:12;;;;;;;1.50;1.10;;;13.20;1.00;;;;;;5077905;28;20769;-53
2021/09/30 02:58:15;;;;;;;1.10;0.80;;;12.80;1.00;;;;;;5112131;28;20869;-53
2021/09/30 03:00:42;;;;;;;1.90;1.00;;;12.80;1.00;;;;;;5110744;28;20805;-54
2021/09/30 03:03:10;;;;;;;2.70;0.97;;;12.80;1.00;;;;;;5110991;28;20456;-53
2021/09/30 03:05:37;;;;;;;2.90;1.40;;;12.90;1.00;;;;;;5108369;28;20448;-53
2021/09/30 03:08:03;;;;;;;1.90;1.00;;;12.90;1.00;;;;;;5109011;28;20552;-53
2021/09/30 03:10:29;;;;;;;2.63;1.20;;;12.80;1.00;;;;;;5111114;28;20502;-53
2021/09/30 03:12:56;;;;;;;1.20;0.83;;;12.80;1.00;;;;;;5110395;28;20665;-55
2021/09/30 03:18:10;;;;;;;1.60;1.50;;;12.80;1.00;;;;;;5107532;28;20464;-54
2021/09/30 03:23:17;;;;;;;3.00;1.10;;;12.80;1.00;;;;;;5108095;28;20447;-54
2021/09/30 03:25:46;;;;;;;1.53;0.90;;;12.80;1.00;;;;;;5109360;28;20419;-53
2021/09/30 03:28:14;;;;;;;1.20;1.10;;;12.80;1.00;;;;;;5108233;28;20446;-53
2021/09/30 03:30:40;;;;;;;1.57;0.80;;;12.70;1.00;;;;;;5111353;28;20788;-54
2021/09/30 03:33:07;;;;;;;3.57;1.20;;;12.80;1.00;;;;;;5108215;28;20456;-53
2021/09/30 03:35:35;;;;;;;3.27;0.90;;;12.80;1.00;;;;;;5109414;28;20436;-53
2021/09/30 03:38:05;;;;;;;2.57;1.03;;;12.80;1.00;;;;;;5098415;28;20453;-53
2021/09/30 03:40:30;;;;;;;2.77;1.20;;;12.50;1.00;;;;;;5111179;28;20501;-54
2021/09/30 03:42:56;;;;;;;5.17;1.27;;;12.50;1.00;;;;;;5110939;28;20936;-53
2021/09/30 03:45:22;;;;;;;1.90;1.03;;;12.60;1.00;;;;;;5108166;28;20196;-54
2021/09/30 03:47:48;;;;;;;2.20;1.10;;;12.50;1.00;;;;;;5109652;28;20197;-53
2021/09/30 03:50:20;;;;;;;2.37;1.00;;;12.50;1.00;;;;;;5110062;28;20501;-53
2021/09/30 04:00:39;;;;;;;1.53;1.23;;;12.60;1.00;;;;;;5111252;28;20467;-54
2021/09/30 04:03:05;;;;;;;1.90;1.27;;;12.40;1.00;;;;;;5108236;28;20415;-53
2021/09/30 04:05:31;;;;;;;3.17;1.20;;;12.30;1.00;;;;;;5108305;28;20936;-53
2021/09/30 04:07:56;;;;;;;4.63;1.17;;;12.40;1.00;;;;;;5110306;28;20193;-55
2021/09/30 04:10:22;;;;;;;2.70;1.20;;;12.50;1.00;;;;;;5109706;28;20900;-55
2021/09/30 04:12:48;;;;;;;3.00;1.63;;;12.40;1.00;;;;;;5110468;28;20648;-54
2021/09/30 04:15:13;;;;;;;2.60;1.00;;;12.50;1.00;;;;;;5112964;28;20898;-55
2021/09/30 04:17:39;;;;;;;7.57;3.60;;;12.30;1.00;;;;;;5103152;28;20194;-54
2021/09/30 04:20:05;;;;;;;1.27;1.10;;;12.30;1.00;;;;;;5114294;28;20186;-58
2021/09/30 04:22:31;;;;;;;1.90;1.07;;;12.10;1.00;;;;;;5108854;28;20434;-54
2021/09/30 04:24:57;;;;;;;3.00;1.20;;;12.20;1.00;;;;;;5114323;28;20410;-55
2021/09/30 04:27:22;;;;;;;1.67;1.00;;;12.40;1.00;;;;;;5114336;28;20190;-55
2021/09/30 04:29:48;;;;;;;1.63;0.90;;;12.00;1.00;;;;;;5115659;28;20260;-53
2021/09/30 04:32:14;;;;;;;2.60;0.90;;;12.20;1.00;;;;;;5115264;28;20265;-54
2021/09/30 04:34:39;;;;;;;2.07;1.00;;;12.10;1.00;;;;;;5115568;28;20183;-53
2021/09/30 04:37:05;;;;;;;3.40;1.20;;;12.10;1.00;;;;;;5115337;28;20434;-54
2021/09/30 04:39:31;;;;;;;1.03;0.90;;;12.10;1.00;;;;;;5115128;28;20226;-54
2021/09/30 04:41:57;;;;;;;3.63;1.20;;;12.10;1.00;;;;;;5115402;28;20187;-54
2021/09/30 04:44:22;;;;;;;3.13;1.07;;;12.00;1.00;;;;;;5114974;28;20414;-54
2021/09/30 04:46:49;;;;;;;2.77;1.00;;;12.10;1.00;;;;;;5115281;28;20187;-54
2021/09/30 04:49:14;;;;;;;1.43;1.00;;;12.00;1.00;;;;;;5115014;28;20210;-54
2021/09/30 04:51:41;;;;;;;1.27;1.17;;;12.10;1.00;;;;;;5112258;28;20467;-54
2021/09/30 04:54:06;;;;;;;2.97;1.20;;;12.10;1.00;;;;;;5114244;28;20189;-54
2021/09/30 04:56:32;;;;;;;2.20;1.47;;;11.90;1.00;;;;;;5114341;28;20432;-54
2021/09/30 04:58:59;;;;;;;1.80;1.20;;;11.90;1.00;;;;;;5114925;28;20301;-54
2021/09/30 05:01:25;;;;;;;2.23;1.50;;;11.80;1.00;;;;;;5104358;28;20635;-53
2021/09/30 05:03:51;;;;;;;1.83;1.10;;;11.80;1.00;;;;;;5108366;28;20443;-54
2021/09/30 05:06:17;;;;;;;2.27;1.17;;;11.80;1.00;;;;;;5114810;28;20410;-54
2021/09/30 05:08:45;;;;;;;3.43;1.27;;;11.80;1.00;;;;;;5114307;28;20210;-55
2021/09/30 05:11:10;;;;;;;2.20;1.40;;;11.70;1.00;;;;;;5110425;28;20526;-54
2021/09/30 05:13:41;;;;;;;2.90;1.50;;;11.80;1.00;;;;;;5114569;28;20440;-54
2021/09/30 05:16:10;;;;;;;2.30;1.00;;;11.80;1.00;;;;;;5114191;28;20172;-54
2021/09/30 05:18:36;;;;;;;2.20;1.47;;;11.80;1.00;;;;;;5113941;28;20415;-54
2021/09/30 05:21:05;;;;;;;2.50;1.40;;;11.80;1.00;;;;;;5114204;28;20425;-53
2021/09/30 05:23:31;;;;;;;3.17;1.97;;;11.90;1.00;;;;;;5114117;28;20411;-55
2021/09/30 05:25:56;;;;;;;2.70;1.30;;;12.00;1.00;;;;;;5105412;28;20433;-54
2021/09/30 05:28:22;;;;;;;4.53;1.90;;;12.00;1.00;;;;;;5111328;27;20185;-55
2021/09/30 05:30:48;;;;;;;1.40;1.30;;;12.00;1.00;;;;;;5110839;28;20227;-54
2021/09/30 05:33:13;;;;;;;1.23;1.13;;;11.90;1.00;;;;;;5108678;28;20182;-55
2021/09/30 05:35:39;;;;;;;1.30;1.20;;;11.90;1.00;;;;;;5110070;28;20323;-54
2021/09/30 05:38:04;;;;;;;4.73;2.10;;;12.00;1.00;;;;;;5102986;28;20203;-54
2021/09/30 05:40:31;;;;;;;3.27;1.53;;;12.00;1.00;;;;;;5109699;28;20194;-54
2021/09/30 05:42:58;;;;;;;2.80;1.40;;;11.90;1.00;;;;;;5112663;28;20179;-54
2021/09/30 05:45:24;;;;;;;2.00;1.40;;;11.90;1.00;;;;;;5108436;28;20518;-54
2021/09/30 05:47:50;;;;;;;1.60;1.50;;;11.90;1.00;;;;;;5113413;28;20474;-53
2021/09/30 05:50:16;;;;;;;1.90;1.50;;;12.00;1.00;;;;;;5113034;28;20233;-54
2021/09/30 05:52:42;;;;;;;4.57;1.87;;;12.10;1.00;;;;;;5113495;28;20207;-54
2021/09/30 05:55:09;;;;;;;3.17;1.47;;;12.20;1.00;;;;;;5104916;28;20479;-54
2021/09/30 05:57:36;;;;;;;3.37;1.50;;;12.40;1.00;;;;;;5112762;28;20428;-53
2021/09/30 06:00:12;;;;;;;2.73;1.30;;;12.50;1.00;;;;;;5102340;28;20444;-54
2021/09/30 06:09:21;;;;;;;3.20;1.20;;;12.70;1.00;;;;;;5111300;28;20437;-54
2021/09/30 06:11:01;;;;;;;2.90;1.53;;;12.50;1.00;;;;;;5110840;28;20517;-55
2021/09/30 06:13:40;;;;;;;2.27;1.20;;;12.40;1.00;;;;;;5109910;28;20529;-55
2021/09/30 06:16:10;;;;;;;8.23;1.30;;;12.50;1.00;;;;;;5111303;28;20739;-53
2021/09/30 06:18:36;;;;;;;2.10;1.00;;;12.70;1.00;;;;;;5107348;28;20444;-54
2021/09/30 06:21:01;;;;;;;2.83;1.73;;;12.60;1.00;;;;;;5110769;28;20426;-53
2021/09/30 06:23:27;;;;;;;2.20;1.10;;;12.60;1.00;;;;;;5106532;28;20205;-54
2021/09/30 06:25:52;;;;;;;2.27;1.37;;;12.90;1.00;;;;;;5106499;28;20195;-53
2021/09/30 06:28:18;;;;;;;3.63;1.53;;;13.00;1.00;;;;;;5111686;28;20197;-54
2021/09/30 06:30:44;;;;;;;5.53;1.17;;;13.00;1.00;;;;;;5111513;28;20208;-54
2021/09/30 06:33:09;;;;;;;1.17;1.00;;;13.00;1.00;;;;;;5112845;28;20228;-54
2021/09/30 06:35:35;;;;;;;2.20;1.50;;;13.00;1.00;;;;;;5112780;28;20194;-54
2021/09/30 06:38:00;;;;;;;2.23;1.47;;;13.00;1.00;;;;;;5104946;28;20230;-54
2021/09/30 06:40:26;;;;;;;1.83;1.57;;;13.30;1.00;;;;;;5101751;28;20223;-54
2021/09/30 06:42:51;;;;;;;2.17;1.10;;;13.60;1.00;;;;;;5112872;28;20554;-54
2021/09/30 06:45:17;;;;;;;10.70;1.60;;;13.70;1.00;;;;;;5112322;28;20198;-54
2021/09/30 06:47:43;;;;;;;4.27;1.33;;;13.80;1.00;;;;;;5112657;28;20659;-54
2021/09/30 06:50:11;;;;;;;2.10;1.17;;;13.80;1.00;;;;;;5110488;28;20234;-54
2021/09/30 06:52:36;;;;;;;3.93;1.43;;;13.80;1.00;;;;;;5112548;28;20197;-53
2021/09/30 06:55:02;;;;;;;4.47;1.70;;;13.80;1.00;;;;;;5112556;28;20864;-54
2021/09/30 06:57:29;;;;;;;3.87;1.03;;;13.80;1.00;;;;;;5110151;28;20257;-53
2021/09/30 07:00:06;;;;;;;2.73;1.37;;;13.80;1.00;;;;;;5112567;28;20417;-54
2021/09/30 07:02:32;;;;;;;3.03;1.20;;;13.90;1.00;;;;;;5112291;28;20425;-54
2021/09/30 07:04:58;;;;;;;2.63;0.90;;;13.90;1.00;;;;;;5111013;28;20491;-54
2021/09/30 07:07:23;;;;;;;1.27;0.90;;;13.90;1.00;;;;;;5112323;28;20422;-54
2021/09/30 07:09:49;;;;;;;2.90;1.33;;;14.20;1.00;;;;;;5111883;28;20484;-54
2021/09/30 07:12:15;;;;;;;2.20;1.20;;;14.30;1.00;;;;;;5112145;28;20207;-53
2021/09/30 07:14:41;;;;;;;1.37;0.93;;;14.10;1.00;;;;;;5112400;28;20274;-52
2021/09/30 07:17:07;;;;;;;1.90;1.20;;;14.00;1.00;;;;;;5112558;28;20592;-55
2021/09/30 07:19:33;;;;;;;1.40;0.80;;;14.00;1.00;;;;;;5112405;28;20472;-54
2021/09/30 07:22:00;;;;;;;3.23;1.50;;;14.10;1.00;;;;;;5112319;28;20652;-55
2021/09/30 07:24:26;;;;;;;3.87;1.10;;;14.30;1.00;;;;;;5111943;28;20416;-53
2021/09/30 07:26:51;;;;;;;3.07;1.00;;;14.30;1.00;;;;;;5112384;28;20471;-54
2021/09/30 07:29:17;;;;;;;2.43;1.20;;;14.40;1.00;;;;;;5112149;28;20218;-53
2021/09/30 07:31:42;;;;;;;1.27;0.90;;;14.60;1.00;;;;;;5112246;28;20243;-54
2021/09/30 07:34:11;;;;;;;1.47;1.37;;;14.70;1.00;;;;;;5112050;28;20210;-54
2021/09/30 07:36:42;;;;;;;2.40;1.00;;;14.90;1.00;;;;;;5112108;28;20243;-52
2021/09/30 07:39:08;;;;;;;2.10;1.17;;;15.00;1.00;;;;;;5111871;28;20463;-54
2021/09/30 07:41:35;;;;;;;2.23;1.33;;;15.00;1.00;;;;;;5111988;28;20498;-54
2021/09/30 07:44:03;;;;;;;3.20;1.40;;;14.90;1.00;;;;;;5112235;28;20445;-53
2021/09/30 07:46:32;;;;;;;2.40;1.50;;;14.60;1.00;;;;;;5111822;28;20436;-53
2021/09/30 07:48:58;;;;;;;3.60;1.50;;;14.60;1.00;;;;;;5108032;28;20537;-54
2021/09/30 07:51:24;;;;;;;5.13;1.30;;;14.60;1.00;;;;;;5115941;28;20864;-54
2021/09/30 07:53:50;;;;;;;1.77;1.03;;;14.60;1.00;;;;;;5116213;28;20422;-53
2021/09/30 07:56:15;;;;;;;2.50;1.30;;;14.70;1.00;;;;;;5116730;28;20183;-53
2021/09/30 07:58:41;;;;;;;4.17;1.60;;;14.80;1.00;;;;;;5116260;28;20198;-53
2021/09/30 08:01:08;;;;;;;5.03;1.57;;;15.00;1.00;;;;;;5116398;28;20198;-53
2021/09/30 08:03:34;;;;;;;2.50;1.17;;;14.80;1.00;;;;;;5116063;28;20182;-53
2021/09/30 08:06:00;;;;;;;4.23;1.17;;;14.80;1.00;;;;;;5116300;28;20805;-56
2021/09/30 08:08:25;;;;;;;3.53;1.73;;;14.90;1.00;;;;;;5116204;28;20436;-54
2021/09/30 08:10:51;;;;;;;3.73;1.47;;;15.00;1.00;;;;;;5115656;28;20182;-54
2021/09/30 08:13:17;;;;;;;3.47;1.17;;;14.90;1.00;;;;;;5116018;28;20176;-54
2021/09/30 08:15:42;;;;;;;2.13;1.37;;;15.00;1.00;;;;;;5110145;28;20259;-54
2021/09/30 08:18:08;;;;;;;4.17;1.30;;;15.50;1.00;;;;;;5115888;28;20900;-54
2021/09/30 08:20:41;;;;;;;2.50;1.20;;;15.50;1.00;;;;;;5115112;28;20192;-54
2021/09/30 08:23:07;;;;;;;2.67;1.47;;;15.70;1.00;;;;;;5115876;28;20189;-54
2021/09/30 08:25:32;;;;;;;5.03;1.60;;;15.80;1.00;;;;;;5115592;28;20625;-53
2021/09/30 08:27:58;;;;;;;1.83;1.30;;;15.80;1.00;;;;;;5115793;28;20511;-53
2021/09/30 08:30:23;;;;;;;3.30;1.80;;;15.70;1.00;;;;;;5115358;28;20288;-53
2021/09/30 08:32:49;;;;;;;4.70;1.30;;;15.50;1.00;;;;;;5115485;28;20660;-55
2021/09/30 08:35:14;;;;;;;3.90;1.77;;;15.40;1.00;;;;;;5106057;28;20269;-53
2021/09/30 08:37:40;;;;;;;1.97;1.50;;;15.40;1.00;;;;;;5115298;28;20221;-54
2021/09/30 08:40:07;;;;;;;4.87;1.40;;;15.30;1.00;;;;;;5115511;28;20179;-54
2021/09/30 08:42:33;;;;;;;4.10;1.50;;;15.40;1.00;;;;;;5115621;28;20657;-57
2021/09/30 08:44:58;;;;;;;5.30;1.60;;;15.30;1.00;;;;;;5115422;28;20428;-54
2021/09/30 08:47:24;;;;;;;2.10;1.03;;;15.40;1.00;;;;;;5115297;28;20634;-54
2021/09/30 08:49:49;;;;;;;2.57;2.37;;;15.60;1.00;;;;;;5115147;28;20212;-54
2021/09/30 08:52:15;;;;;;;3.70;1.47;;;15.60;1.00;;;;;;5115492;28;20257;-53
2021/09/30 08:54:40;;;;;;;3.20;1.50;;;15.80;1.00;;;;;;5115076;28;20688;-54
2021/09/30 08:57:06;;;;;;;1.73;1.20;;;15.90;1.00;;;;;;5115323;28;20245;-55
2021/09/30 08:59:32;;;;;;;2.40;1.20;;;15.90;1.00;;;;;;5114626;28;20195;-54
2021/09/30 09:02:09;;;;;;;1.83;1.20;;;16.00;1.00;;;;;;5114861;28;20927;-54
2021/09/30 09:04:35;;;;;;;1.70;1.23;;;16.10;1.00;;;;;;5114913;28;20175;-54
2021/09/30 09:07:08;;;;;;;4.43;1.60;;;16.10;1.00;;;;;;5106558;28;20432;-54
2021/09/30 09:09:35;;;;;;;1.30;1.10;;;16.10;1.00;;;;;;5114998;28;20475;-54
2021/09/30 09:12:06;;;;;;;1.63;1.13;;;16.20;1.00;;;;;;5114485;28;20450;-53
2021/09/30 09:14:35;;;;;;;3.83;1.30;;;16.00;1.00;;;;;;5114885;28;20447;-54
2021/09/30 09:17:07;;;;;;;5.10;1.13;;;16.10;1.00;;;;;;5114290;28;20480;-53
2021/09/30 09:19:33;;;;;;;2.80;1.70;;;16.40;1.00;;;;;;5114736;28;20501;-54
2021/09/30 09:22:32;;;;;;;1.00;0.90;;;16.70;1.00;;;;;;5114733;28;20406;-54
2021/09/30 09:25:05;;;;;;;2.30;1.20;;;16.50;1.00;;;;;;5114480;28;20280;-53
2021/09/30 09:27:54;;;;;;;2.33;1.30;;;16.70;1.00;;;;;;5114821;28;20434;-53
2021/09/30 09:30:39;;;;;;;2.20;1.40;;;16.40;1.00;;;;;;5114854;28;20497;-54
2021/09/30 09:33:23;;;;;;;3.60;1.03;;;16.20;1.00;;;;;;5114432;28;20766;-53
2021/09/30 09:36:01;;;;;;;2.20;1.33;;;16.10;1.00;;;;;;5112131;28;20427;-54
2021/09/30 09:38:41;;;;;;;12.20;1.40;;;16.20;1.00;;;;;;5114637;28;20437;-54
2021/09/30 09:41:06;;;;;;;2.07;1.30;;;16.10;1.00;;;;;;5114176;28;20438;-54
2021/09/30 09:43:39;;;;;;;2.10;1.37;;;16.20;1.00;;;;;;5114332;28;20417;-54
2021/09/30 09:46:07;;;;;;;3.70;1.40;;;16.30;1.00;;;;;;5114365;28;20179;-55
2021/09/30 09:48:34;;;;;;;2.90;1.60;;;16.50;1.00;;;;;;5114394;28;20842;-54
2021/09/30 09:51:03;;;;;;;1.30;1.20;;;16.20;1.00;;;;;;5114149;28;20465;-55
2021/09/30 09:53:31;;;;;;;2.43;1.03;;;16.10;1.00;;;;;;5114190;28;20435;-55
2021/09/30 09:56:18;;;;;;;7.50;1.83;;;16.30;1.00;;;;;;5113831;28;20438;-53
2021/09/30 09:58:48;;;;;;;5.10;1.57;;;16.70;1.00;;;;;;5113611;28;20440;-54
2021/09/30 10:01:15;;;;;;;1.93;1.30;;;17.30;1.00;;;;;;5113860;28;20922;-55
2021/09/30 10:03:52;;;;;;;3.47;1.57;;;17.20;1.00;;;;;;5113964;28;20430;-54
2021/09/30 10:06:17;;;;;;;2.30;1.20;;;16.80;1.00;;;;;;5114044;28;20931;-53
2021/09/30 10:08:43;;;;;;;5.67;1.23;;;16.60;1.00;;;;;;5113913;28;20545;-54
2021/09/30 10:11:10;;;;;;;1.77;1.27;;;16.60;1.00;;;;;;5112740;28;20180;-56
2021/09/30 10:13:37;;;;;;;3.30;1.27;;;16.70;1.00;;;;;;5113582;28;20424;-55
2021/09/30 10:16:04;;;;;;;3.90;1.30;;;16.70;1.00;;;;;;5113819;28;20428;-54
2021/09/30 10:18:30;;;;;;;2.70;0.97;;;16.60;1.00;;;;;;5113719;28;20399;-55
2021/09/30 10:20:57;;;;;;;2.17;1.40;;;16.60;1.00;;;;;;5113736;28;20495;-53
2021/09/30 10:23:26;;;;;;;1.63;1.20;;;16.50;1.00;;;;;;5113515;28;20441;-53
2021/09/30 10:25:55;;;;;;;1.13;0.87;;;16.90;1.00;;;;;;5113425;28;20787;-54
2021/09/30 10:28:22;;;;;;;3.77;1.50;;;17.10;1.00;;;;;;5113108;28;20757;-54
2021/09/30 10:30:50;;;;;;;5.00;1.70;;;16.80;1.00;;;;;;5113302;28;20492;-55
2021/09/30 10:33:19;;;;;;;2.43;1.20;;;16.50;1.00;;;;;;5113292;28;20972;-54
2021/09/30 10:35:53;;;;;;;3.50;1.30;;;16.30;1.00;;;;;;5113524;28;20418;-53
2021/09/30 10:38:27;;;;;;;3.10;1.00;;;16.40;1.00;;;;;;5113332;28;20469;-55
2021/09/30 10:41:09;;;;;;;3.83;0.97;;;16.80;1.00;;;;;;5113254;28;20437;-54
2021/09/30 10:43:42;;;;;;;2.97;1.20;;;16.90;1.00;;;;;;5113211;28;20440;-54
2021/09/30 10:46:33;;;;;;;1.53;0.80;;;17.00;1.00;;;;;;5113036;28;20433;-54
2021/09/30 10:48:59;;;;;;;1.40;0.90;;;16.90;1.00;;;;;;5112724;28;20483;-55
2021/09/30 10:51:24;;;;;;;4.83;1.00;;;17.20;1.00;;;;;;5102815;28;20551;-54
2021/09/30 10:53:51;;;;;;;1.60;0.60;;;17.40;1.00;;;;;;5113149;28;20199;-53
2021/09/30 10:56:41;;;;;;;2.97;0.93;;;17.30;1.00;;;;;;5113234;28;20164;-54
2021/09/30 10:59:38;;;;;;;2.00;0.97;;;17.40;1.00;;;;;;5112836;28;20443;-54
2021/09/30 11:02:04;;;;;;;1.50;0.70;;;17.00;1.00;;;;;;5113056;28;20496;-55
2021/09/30 11:05:04;;;;;;;2.10;1.03;;;16.90;1.00;;;;;;5112584;28;20500;-54
2021/09/30 11:07:29;;;;;;;3.43;1.03;;;17.00;1.00;;;;;;5112470;28;20185;-54
2021/09/30 11:10:16;;;;;;;2.10;1.13;;;17.20;1.00;;;;;;5112752;28;20936;-54
2021/09/30 11:13:18;;;;;;;2.20;1.93;;;17.30;1.00;;;;;;5112611;28;20187;-55
2021/09/30 11:15:58;;;;;;;3.30;1.03;;;17.40;1.00;;;;;;5101488;28;20784;-54
2021/09/30 11:18:40;;;;;;;1.43;1.00;;;17.40;1.00;;;;;;5112842;28;20434;-54
2021/09/30 11:21:45;;;;;;;2.17;1.20;;;17.10;1.00;;;;;;5109066;28;20458;-53
2021/09/30 11:24:20;;;;;;;1.87;1.07;;;17.00;1.00;;;;;;5111725;28;20404;-54
2021/09/30 11:26:48;;;;;;;3.37;1.43;;;16.90;1.00;;;;;;5112388;28;20824;-55
2021/09/30 11:29:23;;;;;;;1.80;0.87;;;17.10;1.00;;;;;;5112198;28;20435;-54
2021/09/30 11:32:08;;;;;;;3.00;1.13;;;17.10;1.00;;;;;;5112422;28;20819;-54
2021/09/30 11:34:39;;;;;;;1.97;1.10;;;16.80;1.00;;;;;;5112133;28;20438;-56
2021/09/30 11:37:14;;;;;;;2.50;1.17;;;16.50;1.00;;;;;;5112262;28;20465;-55
2021/09/30 11:39:40;;;;;;;2.80;1.03;;;16.50;1.00;;;;;;5112227;28;20462;-55
2021/09/30 11:42:05;;;;;;;1.53;1.00;;;16.60;1.00;;;;;;5112135;28;20494;-54
2021/09/30 11:44:31;;;;;;;3.00;0.80;;;16.80;1.00;;;;;;5112395;28;20197;-54
2021/09/30 11:46:59;;;;;;;1.10;1.00;;;16.70;1.00;;;;;;5112474;28;20225;-54
2021/09/30 11:49:25;;;;;;;3.53;1.10;;;16.60;1.00;;;;;;5112379;28;20202;-54
2021/09/30 11:51:54;;;;;;;3.43;1.20;;;16.70;1.00;;;;;;5111493;28;20468;-55
2021/09/30 11:54:25;;;;;;;2.63;1.03;;;18.10;1.00;;;;;;5112289;28;20450;-54
2021/09/30 11:56:55;;;;;;;2.20;1.00;;;17.10;1.00;;;;;;5112158;28;20440;-54
2021/09/30 11:59:23;;;;;;;2.10;1.47;;;17.30;1.00;;;;;;5112089;28;20495;-54
2021/09/30 12:01:53;;;;;;;0.90;0.80;;;17.40;1.00;;;;;;5111978;28;20409;-54
2021/09/30 12:04:38;;;;;;;2.80;1.10;;;17.70;1.00;;;;;;5112110;28;20435;-54
2021/09/30 12:07:04;;;;;;;1.87;0.93;;;17.80;1.00;;;;;;5111849;28;20489;-54
2021/09/30 12:09:34;;;;;;;5.50;1.30;;;17.50;1.00;;;;;;5111951;28;20471;-54
2021/09/30 12:12:02;;;;;;;1.23;0.90;;;17.20;1.00;;;;;;5111767;28;20801;-54
2021/09/30 12:14:36;;;;;;;2.47;1.13;;;17.10;1.00;;;;;;5112062;28;20426;-54
2021/09/30 12:17:04;;;;;;;0.83;0.77;;;17.00;1.00;;;;;;5111636;28;20436;-55
2021/09/30 12:19:34;;;;;;;5.83;1.10;;;17.00;1.00;;;;;;5112047;28;20417;-54
2021/09/30 12:22:00;;;;;;;2.57;1.07;;;17.10;1.00;;;;;;5112014;28;20426;-54
2021/09/30 12:24:27;;;;;;;5.73;1.63;;;16.90;1.00;;;;;;5111726;28;20926;-54
2021/09/30 12:26:53;;;;;;;3.10;1.30;;;16.80;1.00;;;;;;5111568;28;20465;-54
2021/09/30 12:29:20;;;;;;;2.73;1.23;;;16.80;1.00;;;;;;5111541;28;20448;-54
2021/09/30 12:32:00;;;;;;;2.73;1.10;;;16.80;1.00;;;;;;5111785;28;20407;-54
2021/09/30 12:34:26;;;;;;;2.33;1.10;;;17.00;1.00;;;;;;5112132;28;20462;-54
2021/09/30 12:36:52;;;;;;;2.30;1.23;;;17.50;1.00;;;;;;5115281;28;20403;-54
2021/09/30 12:39:25;;;;;;;3.33;1.30;;;17.30;1.00;;;;;;5115421;28;20225;-55
2021/09/30 12:41:51;;;;;;;3.17;1.33;;;17.30;1.00;;;;;;5115344;28;20190;-55
2021/09/30 12:44:17;;;;;;;1.70;1.20;;;17.40;1.00;;;;;;5115602;28;20414;-55
2021/09/30 12:46:44;;;;;;;1.80;1.03;;;17.70;1.00;;;;;;5115418;28;20933;-54
2021/09/30 12:49:10;;;;;;;2.90;1.40;;;17.70;1.00;;;;;;5115010;28;20198;-54
2021/09/30 12:51:36;;;;;;;2.10;0.87;;;17.50;1.00;;;;;;5115067;28;20498;-55
2021/09/30 12:54:02;;;;;;;1.20;0.87;;;17.60;1.00;;;;;;5115110;28;20186;-53
2021/09/30 12:56:30;;;;;;;2.93;0.93;;;17.70;1.00;;;;;;5099687;28;20217;-55
2021/09/30 12:58:55;;;;;;;4.80;1.40;;;17.90;1.00;;;;;;5108204;28;20178;-54
2021/09/30 13:01:32;;;;;;;4.13;1.43;;;18.00;1.00;;;;;;5115027;28;20774;-54
2021/09/30 13:04:22;;;;;;;2.57;0.80;;;17.80;1.00;;;;;;5111499;28;20559;-54
2021/09/30 13:07:01;;;;;;;1.67;0.90;;;17.80;1.00;;;;;;5115035;28;20413;-54
2021/09/30 13:09:33;;;;;;;2.90;1.03;;;17.90;1.00;;;;;;5092750;28;20425;-55
2021/09/30 13:12:04;;;;;;;2.73;1.00;;;18.10;1.00;;;;;;5114920;28;20405;-54
2021/09/30 13:14:34;;;;;;;0.90;0.70;;;18.30;1.00;;;;;;5114992;28;20523;-54
2021/09/30 13:17:05;;;;;;;9.33;1.37;;;18.30;1.00;;;;;;5114885;28;20403;-54
2021/09/30 13:20:07;;;;;;;2.20;0.70;;;18.30;1.00;;;;;;5114774;28;20440;-54
2021/09/30 13:22:34;;;;;;;1.73;0.77;;;18.40;1.00;;;;;;5105401;28;20426;-54
2021/09/30 13:25:11;;;;;;;1.23;0.80;;;18.30;1.00;;;;;;5114332;28;20436;-55
2021/09/30 13:27:40;;;;;;;3.43;1.00;;;17.90;1.00;;;;;;5082354;28;20414;-55
2021/09/30 13:30:11;;;;;;;1.80;0.87;;;18.00;1.00;;;;;;5107470;28;20441;-55
2021/09/30 13:32:37;;;;;;;1.33;1.13;;;18.20;1.00;;;;;;5114100;28;20509;-54
2021/09/30 13:35:04;;;;;;;2.00;0.90;;;18.30;1.00;;;;;;5114615;28;20434;-54
2021/09/30 13:37:30;;;;;;;1.87;1.07;;;18.40;1.00;;;;;;5087849;28;20448;-54
2021/09/30 13:39:57;;;;;;;5.63;1.00;;;18.40;1.00;;;;;;5114565;28;20443;-54
2021/09/30 13:42:24;;;;;;;2.20;1.30;;;18.50;1.00;;;;;;5114500;28;20667;-54
2021/09/30 13:44:50;;;;;;;3.00;1.10;;;18.50;1.00;;;;;;5114351;28;20420;-54
2021/09/30 13:47:16;;;;;;;2.90;1.20;;;18.50;1.00;;;;;;5114086;28;20434;-55
2021/09/30 13:49:41;;;;;;;2.97;1.10;;;18.50;1.00;;;;;;5113838;28;20206;-56
2021/09/30 13:52:07;;;;;;;1.20;1.00;;;18.70;1.00;;;;;;5114241;28;20189;-54
2021/09/30 13:54:33;;;;;;;2.33;0.80;;;18.90;1.00;;;;;;5114034;28;20185;-55
2021/09/30 13:56:58;;;;;;;1.87;1.00;;;18.90;1.00;;;;;;5113998;28;20175;-55
2021/09/30 13:59:24;;;;;;;1.80;0.80;;;18.90;1.00;;;;;;5113888;28;20188;-54
2021/09/30 14:01:50;;;;;;;1.80;0.70;;;18.80;1.00;;;;;;5113821;28;20169;-54
2021/09/30 14:04:15;;;;;;;2.90;1.10;;;18.50;1.00;;;;;;5113935;28;20185;-54
2021/09/30 14:06:40;;;;;;;2.23;0.80;;;18.50;1.00;;;;;;5113878;28;20497;-56
2021/09/30 14:09:06;;;;;;;1.43;1.03;;;18.20;1.00;;;;;;5101287;28;20617;-54
2021/09/30 14:11:32;;;;;;;3.00;1.00;;;18.20;1.00;;;;;;5113467;28;20177;-54
2021/09/30 14:13:57;;;;;;;4.70;1.00;;;18.30;1.00;;;;;;5113621;28;20234;-54
2021/09/30 14:16:24;;;;;;;2.63;0.70;;;18.30;1.00;;;;;;5113472;28;20188;-54
2021/09/30 14:18:50;;;;;;;3.23;0.90;;;18.10;1.00;;;;;;5113581;28;20187;-54
2021/09/30 14:21:16;;;;;;;1.87;1.00;;;18.10;1.00;;;;;;5113402;28;20459;-54
2021/09/30 14:23:43;;;;;;;1.93;0.83;;;17.90;1.00;;;;;;5113285;28;20436;-56
2021/09/30 14:26:08;;;;;;;3.00;1.43;;;17.70;1.00;;;;;;5113653;28;20549;-54
2021/09/30 14:28:34;;;;;;;1.70;0.83;;;17.60;1.00;;;;;;5113397;28;20827;-54
2021/09/30 14:31:00;;;;;;;1.23;1.00;;;17.70;1.00;;;;;;5113446;28;20175;-55
2021/09/30 14:33:27;;;;;;;3.00;0.70;;;17.90;1.00;;;;;;5113399;28;20183;-54
2021/09/30 14:35:54;;;;;;;1.27;0.93;;;17.80;1.00;;;;;;5113492;28;20635;-55
2021/09/30 14:38:20;;;;;;;3.63;1.50;;;20.00;1.00;;;;;;5113226;28;20410;-56
2021/09/30 14:40:50;;;;;;;1.67;0.80;;;17.90;1.00;;;;;;5113422;28;20435;-55
2021/09/30 14:43:20;;;;;;;2.60;0.90;;;17.90;1.00;;;;;;5113069;28;20466;-55
2021/09/30 14:45:46;;;;;;;3.07;1.20;;;;;;;;;;5111981;28;20400;-55
2021/09/30 14:48:12;;;;;;;2.30;1.10;;;18.00;1.00;;;;;;5113245;28;20828;-54
2021/09/30 14:50:38;;;;;;;4.30;1.03;;;18.00;1.00;;;;;;5112822;28;20537;-54
2021/09/30 14:53:04;;;;;;;0.80;0.70;;;18.20;1.00;;;;;;5113225;28;20589;-54
2021/09/30 14:55:30;;;;;;;2.40;0.90;;;18.40;1.00;;;;;;5113026;28;20402;-56
2021/09/30 14:57:55;;;;;;;3.90;1.07;;;18.40;1.00;;;;;;5112525;28;20290;-55
2021/09/30 15:00:21;;;;;;;1.87;1.00;;;18.80;1.00;;;;;;5112968;28;20185;-55
2021/09/30 15:02:46;;;;;;;1.80;1.20;;;19.60;1.00;;;;;;5112708;28;20224;-55
2021/09/30 15:05:12;;;;;;;3.07;1.20;;;19.40;1.00;;;;;;5105891;28;20184;-54
2021/09/30 15:07:37;;;;;;;2.80;1.03;;;18.90;1.00;;;;;;5112805;28;20656;-54
2021/09/30 15:10:04;;;;;;;1.00;0.70;;;18.60;1.00;;;;;;5112839;28;20345;-54
2021/09/30 15:12:29;;;;;;;1.50;0.70;;;18.60;1.00;;;;;;5112559;28;20268;-55
2021/09/30 15:14:55;;;;;;;1.03;0.60;;;18.40;1.00;;;;;;5112423;28;20509;-55
2021/09/30 15:17:27;;;;;;;3.70;0.90;;;18.80;1.00;;;;;;5112472;28;20183;-55
2021/09/30 15:20:11;;;;;;;1.50;0.80;;;19.10;1.00;;;;;;5112558;28;20188;-55
2021/09/30 15:22:38;;;;;;;1.00;0.83;;;19.40;1.00;;;;;;5101419;28;20456;-55
2021/09/30 15:25:05;;;;;;;3.70;1.10;;;19.60;1.00;;;;;;5112380;28;20453;-55
2021/09/30 15:27:31;;;;;;;2.57;1.20;;;19.60;1.00;;;;;;5112543;28;20414;-55
2021/09/30 15:29:56;;;;;;;4.20;1.20;;;19.30;1.00;;;;;;5092193;28;20985;-54
2021/09/30 15:32:22;;;;;;;2.87;1.10;;;19.30;1.00;;;;;;5107950;28;20270;-55
2021/09/30 15:34:49;;;;;;;2.10;1.03;;;19.40;1.00;;;;;;5112362;28;20690;-54
2021/09/30 15:37:16;;;;;;;2.53;1.10;;;20.00;1.00;;;;;;5112516;28;20193;-54
2021/09/30 15:39:41;;;;;;;1.67;0.93;;;20.20;1.00;;;;;;5112362;28;20863;-55
2021/09/30 15:42:12;;;;;;;2.17;1.00;;;19.70;1.00;;;;;;5111978;28;20475;-55
2021/09/30 15:44:38;;;;;;;5.03;1.60;;;19.60;1.00;;;;;;5111971;28;20193;-55
2021/09/30 15:47:04;;;;;;;2.10;0.90;;;19.40;1.00;;;;;;5112168;28;20954;-54